Aeroporto :
LOGIN :

Iscrizione | Disclaimer

   EN    FR    IT 

 










Sommario :    VFR   VFR Marginale   IFR   IFR Intensivo   IFR Molto Intensivo
Visibilità : 
Base nubi : 
>= 8 km
>= 3000ft
5 / 8 km
1000 / 3000 ft
1500m / 5 km
500 / 1000 ft
800 / 1500m
200 / 500 ft
< 800m
< 200 ft
Simboli :   Temporali  Nebbia  Neve Forte  Precipitazioni Forti  Vento > 20 kt
SIGMETs :   Varie  Temporali  Ghiacco  Turbolenza  Onda orograficha  Ceneri Vulcaniche






- Altitudine del aeroporto : 26 ft
- Codice IATA : SYY


EGPO - Stornoway

ULTIMO METAR :
  • 151750Z 20020KT 9999 VCSH FEW016CB SCT043 05/M00 Q0979

METARs OBSOLETI :
  • 151720Z 21022KT 9999 VCSH FEW016CB SCT043 05/M00 Q0979
  • 151650Z 20021KT 9999 VCSH FEW016CB SCT043 05/M01 Q0979
  • 151620Z 20021KT 9999 VCSH FEW016CB SCT043 05/M01 Q0979
  • 151550Z 20020KT 9999 VCSH FEW016CB BKN042 05/M00 Q0978
  • 151520Z 20020KT 9999 VCSH FEW016CB BKN042 05/00 Q0978

TAF TAF EGPO
Valido dal 15 a 18 ore il 16 a 03 ore UTC


151703Z 1518/1603 21015G25KT 9999 SCT020
PROB40
TEMPO 1518/1603 21022G35KT 4000 SHRA BKN012
ATIS : +44 1851 707 444



MetMap, La meteo Aeronautica in un colpo d'occhio ! - Copyright ORBIFLY Dicembre 2007 - Disclaimer

ORBIFLY MET'MAP TEAM :

Programmazione e sviluppo : Alexandra Zaïnal
Concezione : Baudouin d'Aumeries
Aiuto per la programmazione : Marc-Olivier Méhu
Supporto tecnico e logistico : Manuel Goepfert
Aiuto per la traduzione : Arnaldo La Scala

Contatto : metmap@orbifly.com




FONTI E CREDITI :

   NOAA